sensor_id;sensor_type;location;lat;lon;timestamp;P1;durP1;ratioP1;P2;durP2;ratioP2
71196;SDS011;58918;51.652;4.864;2023-07-24T00:01:54;2.80;;;0.90;;
71196;SDS011;58918;51.652;4.864;2023-07-24T00:04:21;2.45;;;0.70;;
71196;SDS011;58918;51.652;4.864;2023-07-24T00:06:48;2.65;;;1.20;;
71196;SDS011;58918;51.652;4.864;2023-07-24T00:09:15;3.45;;;0.90;;
71196;SDS011;58918;51.652;4.864;2023-07-24T00:11:43;2.35;;;0.80;;
71196;SDS011;58918;51.652;4.864;2023-07-24T00:14:10;3.08;;;0.77;;
71196;SDS011;58918;51.652;4.864;2023-07-24T00:16:37;2.53;;;0.85;;
71196;SDS011;58918;51.652;4.864;2023-07-24T00:19:04;3.22;;;0.70;;
71196;SDS011;58918;51.652;4.864;2023-07-24T00:21:32;3.10;;;1.00;;
71196;SDS011;58918;51.652;4.864;2023-07-24T00:23:59;4.38;;;0.80;;
71196;SDS011;58918;51.652;4.864;2023-07-24T00:26:26;3.40;;;1.00;;
71196;SDS011;58918;51.652;4.864;2023-07-24T00:28:54;2.53;;;0.80;;
71196;SDS011;58918;51.652;4.864;2023-07-24T00:31:21;2.63;;;0.82;;
71196;SDS011;58918;51.652;4.864;2023-07-24T00:33:48;2.78;;;0.82;;
71196;SDS011;58918;51.652;4.864;2023-07-24T00:36:16;2.80;;;0.90;;
71196;SDS011;58918;51.652;4.864;2023-07-24T00:38:43;2.38;;;0.80;;
71196;SDS011;58918;51.652;4.864;2023-07-24T00:41:10;2.85;;;0.70;;
71196;SDS011;58918;51.652;4.864;2023-07-24T00:43:37;2.90;;;0.90;;
71196;SDS011;58918;51.652;4.864;2023-07-24T00:46:04;2.95;;;0.98;;
71196;SDS011;58918;51.652;4.864;2023-07-24T00:48:32;3.10;;;0.90;;
71196;SDS011;58918;51.652;4.864;2023-07-24T00:50:59;1.77;;;0.60;;
71196;SDS011;58918;51.652;4.864;2023-07-24T00:53:26;2.90;;;0.75;;
71196;SDS011;58918;51.652;4.864;2023-07-24T00:55:54;2.22;;;0.70;;
71196;SDS011;58918;51.652;4.864;2023-07-24T00:58:21;3.55;;;0.80;;
71196;SDS011;58918;51.652;4.864;2023-07-24T01:00:48;4.53;;;0.70;;
71196;SDS011;58918;51.652;4.864;2023-07-24T01:03:17;2.10;;;0.60;;
71196;SDS011;58918;51.652;4.864;2023-07-24T01:05:44;2.33;;;0.80;;
71196;SDS011;58918;51.652;4.864;2023-07-24T01:08:11;2.45;;;0.85;;
71196;SDS011;58918;51.652;4.864;2023-07-24T01:10:38;2.50;;;0.82;;
71196;SDS011;58918;51.652;4.864;2023-07-24T01:13:10;2.60;;;0.90;;
71196;SDS011;58918;51.652;4.864;2023-07-24T01:15:50;3.05;;;0.70;;
71196;SDS011;58918;51.652;4.864;2023-07-24T01:18:19;2.28;;;0.75;;
71196;SDS011;58918;51.652;4.864;2023-07-24T01:20:53;3.05;;;0.90;;
71196;SDS011;58918;51.652;4.864;2023-07-24T01:26:08;2.17;;;0.70;;
71196;SDS011;58918;51.652;4.864;2023-07-24T01:28:36;2.25;;;0.70;;
71196;SDS011;58918;51.652;4.864;2023-07-24T01:31:03;2.35;;;0.82;;
71196;SDS011;58918;51.652;4.864;2023-07-24T01:33:31;4.82;;;0.80;;
71196;SDS011;58918;51.652;4.864;2023-07-24T01:36:02;4.03;;;0.93;;
71196;SDS011;58918;51.652;4.864;2023-07-24T01:38:30;2.03;;;0.68;;
71196;SDS011;58918;51.652;4.864;2023-07-24T01:40:58;8.10;;;1.00;;
71196;SDS011;58918;51.652;4.864;2023-07-24T01:43:26;2.60;;;0.77;;
71196;SDS011;58918;51.652;4.864;2023-07-24T01:45:53;3.30;;;1.27;;
71196;SDS011;58918;51.652;4.864;2023-07-24T01:48:21;2.42;;;0.80;;
71196;SDS011;58918;51.652;4.864;2023-07-24T01:50:48;2.58;;;0.88;;
71196;SDS011;58918;51.652;4.864;2023-07-24T01:53:16;3.38;;;1.13;;
71196;SDS011;58918;51.652;4.864;2023-07-24T01:55:43;3.25;;;1.40;;
71196;SDS011;58918;51.652;4.864;2023-07-24T01:58:11;3.83;;;1.50;;
71196;SDS011;58918;51.652;4.864;2023-07-24T02:00:38;4.50;;;1.80;;
71196;SDS011;58918;51.652;4.864;2023-07-24T02:03:05;3.97;;;1.45;;
71196;SDS011;58918;51.652;4.864;2023-07-24T02:05:32;4.50;;;1.38;;
71196;SDS011;58918;51.652;4.864;2023-07-24T02:08:00;5.43;;;1.30;;
71196;SDS011;58918;51.652;4.864;2023-07-24T02:10:27;3.45;;;1.45;;
71196;SDS011;58918;51.652;4.864;2023-07-24T02:12:55;3.72;;;1.52;;
71196;SDS011;58918;51.652;4.864;2023-07-24T02:15:22;3.78;;;1.38;;
71196;SDS011;58918;51.652;4.864;2023-07-24T02:17:49;3.30;;;1.20;;
71196;SDS011;58918;51.652;4.864;2023-07-24T02:20:16;4.22;;;1.52;;
71196;SDS011;58918;51.652;4.864;2023-07-24T02:22:43;5.13;;;1.70;;
71196;SDS011;58918;51.652;4.864;2023-07-24T02:25:11;4.05;;;1.55;;
71196;SDS011;58918;51.652;4.864;2023-07-24T02:27:38;3.65;;;1.55;;
71196;SDS011;58918;51.652;4.864;2023-07-24T02:30:05;3.47;;;1.42;;
71196;SDS011;58918;51.652;4.864;2023-07-24T02:32:33;3.35;;;1.55;;
71196;SDS011;58918;51.652;4.864;2023-07-24T02:35:00;3.33;;;1.27;;
71196;SDS011;58918;51.652;4.864;2023-07-24T02:37:27;4.38;;;1.75;;
71196;SDS011;58918;51.652;4.864;2023-07-24T02:39:54;3.70;;;1.45;;
71196;SDS011;58918;51.652;4.864;2023-07-24T02:42:22;3.30;;;1.40;;
71196;SDS011;58918;51.652;4.864;2023-07-24T02:44:49;4.15;;;1.58;;
71196;SDS011;58918;51.652;4.864;2023-07-24T02:47:16;2.72;;;1.13;;
71196;SDS011;58918;51.652;4.864;2023-07-24T02:49:43;5.40;;;1.30;;
71196;SDS011;58918;51.652;4.864;2023-07-24T02:52:11;3.95;;;1.60;;
71196;SDS011;58918;51.652;4.864;2023-07-24T02:54:38;4.03;;;1.50;;
71196;SDS011;58918;51.652;4.864;2023-07-24T02:57:05;3.75;;;1.25;;
71196;SDS011;58918;51.652;4.864;2023-07-24T02:59:33;3.40;;;1.42;;
71196;SDS011;58918;51.652;4.864;2023-07-24T03:02:01;3.55;;;1.30;;
71196;SDS011;58918;51.652;4.864;2023-07-24T03:04:28;3.15;;;1.25;;
71196;SDS011;58918;51.652;4.864;2023-07-24T03:06:55;4.65;;;1.45;;
71196;SDS011;58918;51.652;4.864;2023-07-24T03:09:23;4.70;;;1.60;;
71196;SDS011;58918;51.652;4.864;2023-07-24T03:11:50;4.13;;;1.30;;
71196;SDS011;58918;51.652;4.864;2023-07-24T03:14:17;5.78;;;1.60;;
71196;SDS011;58918;51.652;4.864;2023-07-24T03:16:44;3.05;;;1.25;;
71196;SDS011;58918;51.652;4.864;2023-07-24T03:19:11;3.83;;;1.38;;
71196;SDS011;58918;51.652;4.864;2023-07-24T03:21:39;4.63;;;1.50;;
71196;SDS011;58918;51.652;4.864;2023-07-24T03:24:06;3.55;;;1.10;;
71196;SDS011;58918;51.652;4.864;2023-07-24T03:26:33;3.60;;;1.42;;
71196;SDS011;58918;51.652;4.864;2023-07-24T03:29:00;4.75;;;1.73;;
71196;SDS011;58918;51.652;4.864;2023-07-24T03:31:27;5.05;;;1.77;;
71196;SDS011;58918;51.652;4.864;2023-07-24T03:33:55;4.47;;;1.55;;
71196;SDS011;58918;51.652;4.864;2023-07-24T03:36:22;5.45;;;1.48;;
71196;SDS011;58918;51.652;4.864;2023-07-24T03:38:50;3.30;;;1.38;;
71196;SDS011;58918;51.652;4.864;2023-07-24T03:41:17;4.40;;;1.42;;
71196;SDS011;58918;51.652;4.864;2023-07-24T03:43:44;4.30;;;1.58;;
71196;SDS011;58918;51.652;4.864;2023-07-24T03:46:12;4.95;;;1.95;;
71196;SDS011;58918;51.652;4.864;2023-07-24T03:48:39;10.70;;;2.60;;
71196;SDS011;58918;51.652;4.864;2023-07-24T03:51:06;12.65;;;1.90;;
71196;SDS011;58918;51.652;4.864;2023-07-24T03:53:34;7.47;;;2.05;;
71196;SDS011;58918;51.652;4.864;2023-07-24T03:56:01;4.72;;;1.50;;
71196;SDS011;58918;51.652;4.864;2023-07-24T03:58:29;7.03;;;1.40;;
71196;SDS011;58918;51.652;4.864;2023-07-24T04:00:56;4.97;;;1.88;;
71196;SDS011;58918;51.652;4.864;2023-07-24T04:03:24;4.65;;;1.73;;
71196;SDS011;58918;51.652;4.864;2023-07-24T04:05:51;5.82;;;1.75;;
71196;SDS011;58918;51.652;4.864;2023-07-24T04:08:19;3.85;;;1.50;;
71196;SDS011;58918;51.652;4.864;2023-07-24T04:10:46;4.13;;;1.70;;
71196;SDS011;58918;51.652;4.864;2023-07-24T04:13:13;7.20;;;1.58;;
71196;SDS011;58918;51.652;4.864;2023-07-24T04:15:41;5.07;;;2.00;;
71196;SDS011;58918;51.652;4.864;2023-07-24T04:18:08;5.47;;;1.92;;
71196;SDS011;58918;51.652;4.864;2023-07-24T04:20:35;6.10;;;2.00;;
71196;SDS011;58918;51.652;4.864;2023-07-24T04:23:02;5.35;;;1.85;;
71196;SDS011;58918;51.652;4.864;2023-07-24T04:25:30;4.80;;;1.88;;
71196;SDS011;58918;51.652;4.864;2023-07-24T04:27:57;6.03;;;2.00;;
71196;SDS011;58918;51.652;4.864;2023-07-24T04:30:24;6.30;;;2.20;;
71196;SDS011;58918;51.652;4.864;2023-07-24T04:32:51;4.90;;;1.88;;
71196;SDS011;58918;51.652;4.864;2023-07-24T04:35:18;5.30;;;1.90;;
71196;SDS011;58918;51.652;4.864;2023-07-24T04:37:46;4.03;;;1.85;;
71196;SDS011;58918;51.652;4.864;2023-07-24T04:40:13;8.43;;;2.03;;
71196;SDS011;58918;51.652;4.864;2023-07-24T04:42:40;4.63;;;1.75;;
71196;SDS011;58918;51.652;4.864;2023-07-24T04:45:07;6.35;;;1.85;;
71196;SDS011;58918;51.652;4.864;2023-07-24T04:47:35;6.15;;;1.60;;
71196;SDS011;58918;51.652;4.864;2023-07-24T04:50:03;4.28;;;1.70;;
71196;SDS011;58918;51.652;4.864;2023-07-24T04:52:30;5.90;;;1.50;;
71196;SDS011;58918;51.652;4.864;2023-07-24T04:54:58;5.22;;;1.80;;
71196;SDS011;58918;51.652;4.864;2023-07-24T04:57:25;5.30;;;1.80;;
71196;SDS011;58918;51.652;4.864;2023-07-24T04:59:52;4.25;;;1.65;;
71196;SDS011;58918;51.652;4.864;2023-07-24T05:02:19;5.15;;;1.70;;
71196;SDS011;58918;51.652;4.864;2023-07-24T05:04:49;5.38;;;2.00;;
71196;SDS011;58918;51.652;4.864;2023-07-24T05:07:17;5.85;;;2.20;;
71196;SDS011;58918;51.652;4.864;2023-07-24T05:09:44;6.85;;;2.05;;
71196;SDS011;58918;51.652;4.864;2023-07-24T05:12:11;5.72;;;2.05;;
71196;SDS011;58918;51.652;4.864;2023-07-24T05:14:38;6.55;;;2.13;;
71196;SDS011;58918;51.652;4.864;2023-07-24T05:17:05;8.32;;;2.47;;
71196;SDS011;58918;51.652;4.864;2023-07-24T05:19:33;4.93;;;2.20;;
71196;SDS011;58918;51.652;4.864;2023-07-24T05:22:00;5.18;;;2.13;;
71196;SDS011;58918;51.652;4.864;2023-07-24T05:24:27;5.75;;;2.47;;
71196;SDS011;58918;51.652;4.864;2023-07-24T05:26:54;5.18;;;2.53;;
71196;SDS011;58918;51.652;4.864;2023-07-24T05:29:22;6.55;;;2.70;;
71196;SDS011;58918;51.652;4.864;2023-07-24T05:31:49;9.43;;;2.28;;
71196;SDS011;58918;51.652;4.864;2023-07-24T05:34:16;5.28;;;2.28;;
71196;SDS011;58918;51.652;4.864;2023-07-24T05:36:44;5.32;;;2.50;;
71196;SDS011;58918;51.652;4.864;2023-07-24T05:39:11;5.88;;;2.05;;
71196;SDS011;58918;51.652;4.864;2023-07-24T05:41:38;7.45;;;2.60;;
71196;SDS011;58918;51.652;4.864;2023-07-24T05:44:06;6.55;;;2.28;;
71196;SDS011;58918;51.652;4.864;2023-07-24T05:46:36;7.80;;;2.47;;
71196;SDS011;58918;51.652;4.864;2023-07-24T05:49:04;5.53;;;2.15;;
71196;SDS011;58918;51.652;4.864;2023-07-24T05:51:31;5.55;;;2.40;;
71196;SDS011;58918;51.652;4.864;2023-07-24T05:53:58;4.63;;;2.10;;
71196;SDS011;58918;51.652;4.864;2023-07-24T05:56:25;6.68;;;2.67;;
71196;SDS011;58918;51.652;4.864;2023-07-24T05:58:53;5.43;;;2.33;;
71196;SDS011;58918;51.652;4.864;2023-07-24T06:01:20;6.15;;;2.65;;
71196;SDS011;58918;51.652;4.864;2023-07-24T06:03:47;6.63;;;2.92;;
71196;SDS011;58918;51.652;4.864;2023-07-24T06:06:15;5.15;;;2.22;;
71196;SDS011;58918;51.652;4.864;2023-07-24T06:08:42;6.18;;;2.55;;
71196;SDS011;58918;51.652;4.864;2023-07-24T06:11:10;10.30;;;2.78;;
71196;SDS011;58918;51.652;4.864;2023-07-24T06:13:37;4.82;;;2.25;;
71196;SDS011;58918;51.652;4.864;2023-07-24T06:16:04;5.93;;;2.88;;
71196;SDS011;58918;51.652;4.864;2023-07-24T06:18:36;5.95;;;2.30;;
71196;SDS011;58918;51.652;4.864;2023-07-24T06:21:03;5.28;;;2.58;;
71196;SDS011;58918;51.652;4.864;2023-07-24T06:23:30;6.28;;;2.70;;
71196;SDS011;58918;51.652;4.864;2023-07-24T06:25:58;6.40;;;2.53;;
71196;SDS011;58918;51.652;4.864;2023-07-24T06:28:25;9.27;;;2.72;;
71196;SDS011;58918;51.652;4.864;2023-07-24T06:30:52;6.05;;;2.63;;
71196;SDS011;58918;51.652;4.864;2023-07-24T06:33:20;6.75;;;2.90;;
71196;SDS011;58918;51.652;4.864;2023-07-24T06:35:48;6.68;;;2.70;;
71196;SDS011;58918;51.652;4.864;2023-07-24T06:38:15;6.07;;;2.65;;
71196;SDS011;58918;51.652;4.864;2023-07-24T06:40:43;5.53;;;2.58;;
71196;SDS011;58918;51.652;4.864;2023-07-24T06:43:10;5.90;;;2.67;;
71196;SDS011;58918;51.652;4.864;2023-07-24T06:45:37;9.35;;;2.88;;
71196;SDS011;58918;51.652;4.864;2023-07-24T06:48:04;5.95;;;2.80;;
71196;SDS011;58918;51.652;4.864;2023-07-24T06:50:32;6.25;;;2.83;;
71196;SDS011;58918;51.652;4.864;2023-07-24T06:52:59;4.93;;;2.30;;
71196;SDS011;58918;51.652;4.864;2023-07-24T06:55:26;7.60;;;3.15;;
71196;SDS011;58918;51.652;4.864;2023-07-24T06:57:53;6.82;;;2.85;;
71196;SDS011;58918;51.652;4.864;2023-07-24T07:00:21;6.03;;;2.97;;
71196;SDS011;58918;51.652;4.864;2023-07-24T07:02:48;9.48;;;3.05;;
71196;SDS011;58918;51.652;4.864;2023-07-24T07:05:15;7.35;;;3.47;;
71196;SDS011;58918;51.652;4.864;2023-07-24T07:07:42;7.65;;;2.88;;
71196;SDS011;58918;51.652;4.864;2023-07-24T07:10:10;6.85;;;3.00;;
71196;SDS011;58918;51.652;4.864;2023-07-24T07:12:37;5.82;;;3.10;;
71196;SDS011;58918;51.652;4.864;2023-07-24T07:15:04;7.63;;;3.38;;
71196;SDS011;58918;51.652;4.864;2023-07-24T07:17:32;6.60;;;3.53;;
71196;SDS011;58918;51.652;4.864;2023-07-24T07:19:59;7.07;;;3.50;;
71196;SDS011;58918;51.652;4.864;2023-07-24T07:22:26;5.63;;;3.00;;
71196;SDS011;58918;51.652;4.864;2023-07-24T07:24:53;6.55;;;2.92;;
71196;SDS011;58918;51.652;4.864;2023-07-24T07:27:22;6.07;;;3.55;;
71196;SDS011;58918;51.652;4.864;2023-07-24T07:29:49;7.82;;;3.33;;
71196;SDS011;58918;51.652;4.864;2023-07-24T07:32:17;6.72;;;3.13;;
71196;SDS011;58918;51.652;4.864;2023-07-24T07:34:44;6.35;;;3.00;;
71196;SDS011;58918;51.652;4.864;2023-07-24T07:37:11;8.95;;;3.67;;
71196;SDS011;58918;51.652;4.864;2023-07-24T07:39:38;6.82;;;3.35;;
71196;SDS011;58918;51.652;4.864;2023-07-24T07:42:06;8.07;;;3.33;;
71196;SDS011;58918;51.652;4.864;2023-07-24T07:44:43;7.05;;;3.25;;
71196;SDS011;58918;51.652;4.864;2023-07-24T07:47:11;7.53;;;3.67;;
71196;SDS011;58918;51.652;4.864;2023-07-24T07:49:38;6.45;;;3.08;;
71196;SDS011;58918;51.652;4.864;2023-07-24T07:52:08;8.45;;;3.05;;
71196;SDS011;58918;51.652;4.864;2023-07-24T07:54:35;7.25;;;3.03;;
71196;SDS011;58918;51.652;4.864;2023-07-24T07:57:05;8.23;;;2.90;;
71196;SDS011;58918;51.652;4.864;2023-07-24T07:59:32;6.07;;;2.65;;
71196;SDS011;58918;51.652;4.864;2023-07-24T08:02:01;9.52;;;3.33;;
71196;SDS011;58918;51.652;4.864;2023-07-24T08:04:28;8.23;;;3.38;;
71196;SDS011;58918;51.652;4.864;2023-07-24T08:06:55;9.30;;;3.28;;
71196;SDS011;58918;51.652;4.864;2023-07-24T08:09:23;9.80;;;3.40;;
71196;SDS011;58918;51.652;4.864;2023-07-24T08:11:50;7.45;;;3.17;;
71196;SDS011;58918;51.652;4.864;2023-07-24T08:14:18;6.18;;;3.28;;
71196;SDS011;58918;51.652;4.864;2023-07-24T08:16:47;6.55;;;2.40;;
71196;SDS011;58918;51.652;4.864;2023-07-24T08:19:15;7.07;;;3.20;;
71196;SDS011;58918;51.652;4.864;2023-07-24T08:21:42;7.85;;;3.03;;
71196;SDS011;58918;51.652;4.864;2023-07-24T08:24:11;6.65;;;2.60;;
71196;SDS011;58918;51.652;4.864;2023-07-24T08:26:38;5.47;;;2.30;;
71196;SDS011;58918;51.652;4.864;2023-07-24T08:29:05;7.78;;;2.80;;
71196;SDS011;58918;51.652;4.864;2023-07-24T08:31:35;6.88;;;2.78;;
71196;SDS011;58918;51.652;4.864;2023-07-24T08:34:03;6.93;;;2.35;;
71196;SDS011;58918;51.652;4.864;2023-07-24T08:36:30;6.13;;;2.70;;
71196;SDS011;58918;51.652;4.864;2023-07-24T08:39:00;5.47;;;2.60;;
71196;SDS011;58918;51.652;4.864;2023-07-24T08:41:27;9.88;;;2.53;;
71196;SDS011;58918;51.652;4.864;2023-07-24T08:43:54;6.38;;;2.83;;
71196;SDS011;58918;51.652;4.864;2023-07-24T08:46:22;6.30;;;2.60;;
71196;SDS011;58918;51.652;4.864;2023-07-24T08:48:49;5.70;;;2.90;;
71196;SDS011;58918;51.652;4.864;2023-07-24T08:51:16;7.07;;;3.15;;
71196;SDS011;58918;51.652;4.864;2023-07-24T08:53:45;7.30;;;2.90;;
71196;SDS011;58918;51.652;4.864;2023-07-24T08:56:12;5.93;;;2.88;;
71196;SDS011;58918;51.652;4.864;2023-07-24T08:58:43;6.07;;;2.83;;
71196;SDS011;58918;51.652;4.864;2023-07-24T09:01:10;6.35;;;3.10;;
71196;SDS011;58918;51.652;4.864;2023-07-24T09:03:38;6.13;;;2.85;;
71196;SDS011;58918;51.652;4.864;2023-07-24T09:06:05;6.43;;;3.03;;
71196;SDS011;58918;51.652;4.864;2023-07-24T09:11:02;6.15;;;3.55;;
71196;SDS011;58918;51.652;4.864;2023-07-24T09:13:30;5.30;;;2.90;;
71196;SDS011;58918;51.652;4.864;2023-07-24T09:15:58;6.47;;;3.20;;
71196;SDS011;58918;51.652;4.864;2023-07-24T09:18:41;6.53;;;3.45;;
71196;SDS011;58918;51.652;4.864;2023-07-24T09:21:09;5.53;;;2.80;;
71196;SDS011;58918;51.652;4.864;2023-07-24T09:23:40;5.93;;;3.17;;
71196;SDS011;58918;51.652;4.864;2023-07-24T09:26:09;7.05;;;3.83;;
71196;SDS011;58918;51.652;4.864;2023-07-24T09:28:36;7.13;;;2.70;;
71196;SDS011;58918;51.652;4.864;2023-07-24T09:31:04;5.18;;;2.55;;
71196;SDS011;58918;51.652;4.864;2023-07-24T09:33:38;7.00;;;2.83;;
71196;SDS011;58918;51.652;4.864;2023-07-24T09:36:07;6.03;;;3.15;;
71196;SDS011;58918;51.652;4.864;2023-07-24T09:41:02;8.10;;;3.28;;
71196;SDS011;58918;51.652;4.864;2023-07-24T09:43:29;5.90;;;2.50;;
71196;SDS011;58918;51.652;4.864;2023-07-24T09:46:06;5.65;;;2.80;;
71196;SDS011;58918;51.652;4.864;2023-07-24T09:48:35;5.38;;;2.80;;
71196;SDS011;58918;51.652;4.864;2023-07-24T09:51:08;5.70;;;2.78;;
71196;SDS011;58918;51.652;4.864;2023-07-24T09:54:00;5.72;;;2.40;;
71196;SDS011;58918;51.652;4.864;2023-07-24T09:56:28;7.00;;;3.10;;
71196;SDS011;58918;51.652;4.864;2023-07-24T09:59:15;6.10;;;2.60;;
71196;SDS011;58918;51.652;4.864;2023-07-24T10:01:43;7.60;;;3.33;;
71196;SDS011;58918;51.652;4.864;2023-07-24T10:04:10;6.22;;;2.70;;
71196;SDS011;58918;51.652;4.864;2023-07-24T10:06:38;6.97;;;2.67;;
71196;SDS011;58918;51.652;4.864;2023-07-24T10:09:05;7.65;;;2.95;;
71196;SDS011;58918;51.652;4.864;2023-07-24T10:14:01;7.40;;;2.83;;
71196;SDS011;58918;51.652;4.864;2023-07-24T10:16:28;6.30;;;3.05;;
71196;SDS011;58918;51.652;4.864;2023-07-24T10:18:56;7.20;;;2.58;;
71196;SDS011;58918;51.652;4.864;2023-07-24T10:21:27;7.20;;;2.50;;
71196;SDS011;58918;51.652;4.864;2023-07-24T10:23:59;7.65;;;3.42;;
71196;SDS011;58918;51.652;4.864;2023-07-24T10:26:26;6.82;;;2.58;;
71196;SDS011;58918;51.652;4.864;2023-07-24T10:28:54;5.35;;;2.78;;
71196;SDS011;58918;51.652;4.864;2023-07-24T10:31:22;6.57;;;2.70;;
71196;SDS011;58918;51.652;4.864;2023-07-24T10:38:46;7.15;;;2.95;;
71196;SDS011;58918;51.652;4.864;2023-07-24T10:41:13;7.60;;;2.33;;
71196;SDS011;58918;51.652;4.864;2023-07-24T10:43:47;5.15;;;2.30;;
71196;SDS011;58918;51.652;4.864;2023-07-24T10:46:15;5.75;;;2.30;;
71196;SDS011;58918;51.652;4.864;2023-07-24T10:48:47;7.70;;;2.55;;
71196;SDS011;58918;51.652;4.864;2023-07-24T10:51:14;7.35;;;2.78;;
71196;SDS011;58918;51.652;4.864;2023-07-24T10:53:48;6.85;;;2.50;;
71196;SDS011;58918;51.652;4.864;2023-07-24T10:56:16;5.78;;;2.65;;
71196;SDS011;58918;51.652;4.864;2023-07-24T10:58:44;7.82;;;3.13;;
71196;SDS011;58918;51.652;4.864;2023-07-24T11:01:11;9.05;;;2.90;;
71196;SDS011;58918;51.652;4.864;2023-07-24T11:03:41;6.82;;;2.30;;
71196;SDS011;58918;51.652;4.864;2023-07-24T11:06:12;6.05;;;2.63;;
71196;SDS011;58918;51.652;4.864;2023-07-24T11:08:40;6.00;;;2.90;;
71196;SDS011;58918;51.652;4.864;2023-07-24T11:11:07;5.35;;;2.50;;
71196;SDS011;58918;51.652;4.864;2023-07-24T11:13:35;6.05;;;2.72;;
71196;SDS011;58918;51.652;4.864;2023-07-24T11:16:07;5.07;;;2.80;;
71196;SDS011;58918;51.652;4.864;2023-07-24T11:18:48;6.05;;;2.50;;
71196;SDS011;58918;51.652;4.864;2023-07-24T11:21:20;5.43;;;2.42;;
71196;SDS011;58918;51.652;4.864;2023-07-24T11:23:48;6.88;;;2.60;;
71196;SDS011;58918;51.652;4.864;2023-07-24T11:26:18;5.45;;;2.60;;
71196;SDS011;58918;51.652;4.864;2023-07-24T11:28:46;5.65;;;2.50;;
71196;SDS011;58918;51.652;4.864;2023-07-24T11:31:13;6.65;;;3.08;;
71196;SDS011;58918;51.652;4.864;2023-07-24T11:33:41;7.32;;;2.67;;
71196;SDS011;58918;51.652;4.864;2023-07-24T11:36:08;6.32;;;2.78;;
71196;SDS011;58918;51.652;4.864;2023-07-24T11:38:36;6.15;;;2.80;;
71196;SDS011;58918;51.652;4.864;2023-07-24T11:41:07;6.40;;;2.63;;
71196;SDS011;58918;51.652;4.864;2023-07-24T11:43:35;5.22;;;2.78;;
71196;SDS011;58918;51.652;4.864;2023-07-24T11:46:02;6.15;;;3.08;;
71196;SDS011;58918;51.652;4.864;2023-07-24T11:48:29;5.20;;;2.47;;
71196;SDS011;58918;51.652;4.864;2023-07-24T11:50:57;6.30;;;2.90;;
71196;SDS011;58918;51.652;4.864;2023-07-24T11:53:25;4.90;;;2.58;;
71196;SDS011;58918;51.652;4.864;2023-07-24T11:55:53;7.63;;;2.40;;
71196;SDS011;58918;51.652;4.864;2023-07-24T11:58:21;5.80;;;3.00;;
71196;SDS011;58918;51.652;4.864;2023-07-24T12:00:49;5.93;;;2.35;;
71196;SDS011;58918;51.652;4.864;2023-07-24T12:03:24;4.90;;;2.60;;
71196;SDS011;58918;51.652;4.864;2023-07-24T12:05:52;5.97;;;2.70;;
71196;SDS011;58918;51.652;4.864;2023-07-24T12:08:20;5.32;;;2.63;;
71196;SDS011;58918;51.652;4.864;2023-07-24T12:10:50;5.63;;;2.97;;
71196;SDS011;58918;51.652;4.864;2023-07-24T12:13:17;7.70;;;2.80;;
71196;SDS011;58918;51.652;4.864;2023-07-24T12:15:47;8.27;;;3.08;;
71196;SDS011;58918;51.652;4.864;2023-07-24T12:18:14;4.43;;;2.35;;
71196;SDS011;58918;51.652;4.864;2023-07-24T12:20:41;4.97;;;2.67;;
71196;SDS011;58918;51.652;4.864;2023-07-24T12:23:15;6.75;;;2.55;;
71196;SDS011;58918;51.652;4.864;2023-07-24T12:25:43;6.45;;;2.75;;
71196;SDS011;58918;51.652;4.864;2023-07-24T12:28:10;6.70;;;3.15;;
71196;SDS011;58918;51.652;4.864;2023-07-24T12:30:37;6.20;;;2.65;;
71196;SDS011;58918;51.652;4.864;2023-07-24T12:33:05;7.03;;;2.83;;
71196;SDS011;58918;51.652;4.864;2023-07-24T12:35:32;6.20;;;2.83;;
71196;SDS011;58918;51.652;4.864;2023-07-24T12:38:00;5.90;;;2.60;;
71196;SDS011;58918;51.652;4.864;2023-07-24T12:40:27;5.55;;;2.40;;
71196;SDS011;58918;51.652;4.864;2023-07-24T12:42:54;8.23;;;3.30;;
71196;SDS011;58918;51.652;4.864;2023-07-24T12:45:21;5.75;;;2.90;;
71196;SDS011;58918;51.652;4.864;2023-07-24T12:47:48;6.10;;;2.70;;
71196;SDS011;58918;51.652;4.864;2023-07-24T12:50:16;6.93;;;3.22;;
71196;SDS011;58918;51.652;4.864;2023-07-24T12:52:44;6.32;;;2.97;;
71196;SDS011;58918;51.652;4.864;2023-07-24T12:55:12;7.95;;;3.08;;
71196;SDS011;58918;51.652;4.864;2023-07-24T12:57:39;6.53;;;3.67;;
71196;SDS011;58918;51.652;4.864;2023-07-24T13:00:07;7.25;;;3.17;;
71196;SDS011;58918;51.652;4.864;2023-07-24T13:02:35;6.88;;;2.80;;
71196;SDS011;58918;51.652;4.864;2023-07-24T13:05:02;7.55;;;3.40;;
71196;SDS011;58918;51.652;4.864;2023-07-24T13:07:30;7.60;;;3.00;;
71196;SDS011;58918;51.652;4.864;2023-07-24T13:09:57;9.10;;;2.97;;
71196;SDS011;58918;51.652;4.864;2023-07-24T13:12:25;8.55;;;2.95;;
71196;SDS011;58918;51.652;4.864;2023-07-24T13:14:52;6.50;;;2.88;;
71196;SDS011;58918;51.652;4.864;2023-07-24T13:17:19;6.20;;;2.70;;
71196;SDS011;58918;51.652;4.864;2023-07-24T13:19:46;9.30;;;2.67;;
71196;SDS011;58918;51.652;4.864;2023-07-24T13:22:14;5.97;;;2.33;;
71196;SDS011;58918;51.652;4.864;2023-07-24T13:24:41;5.35;;;2.45;;
71196;SDS011;58918;51.652;4.864;2023-07-24T13:27:08;5.63;;;2.75;;
71196;SDS011;58918;51.652;4.864;2023-07-24T13:29:36;5.18;;;2.30;;
71196;SDS011;58918;51.652;4.864;2023-07-24T13:32:03;7.40;;;2.40;;
71196;SDS011;58918;51.652;4.864;2023-07-24T13:34:30;6.85;;;2.20;;
71196;SDS011;58918;51.652;4.864;2023-07-24T13:36:57;6.68;;;2.30;;
71196;SDS011;58918;51.652;4.864;2023-07-24T13:39:25;4.78;;;2.50;;
71196;SDS011;58918;51.652;4.864;2023-07-24T13:41:54;5.60;;;2.90;;
71196;SDS011;58918;51.652;4.864;2023-07-24T13:44:24;5.03;;;2.38;;
71196;SDS011;58918;51.652;4.864;2023-07-24T13:46:51;6.50;;;2.60;;
71196;SDS011;58918;51.652;4.864;2023-07-24T13:49:21;6.68;;;2.38;;
71196;SDS011;58918;51.652;4.864;2023-07-24T13:51:49;6.75;;;2.20;;
71196;SDS011;58918;51.652;4.864;2023-07-24T13:54:16;7.30;;;1.95;;
71196;SDS011;58918;51.652;4.864;2023-07-24T13:56:43;4.53;;;2.30;;
71196;SDS011;58918;51.652;4.864;2023-07-24T13:59:11;4.97;;;2.10;;
71196;SDS011;58918;51.652;4.864;2023-07-24T14:01:38;6.13;;;2.08;;
71196;SDS011;58918;51.652;4.864;2023-07-24T14:04:05;5.90;;;2.33;;
71196;SDS011;58918;51.652;4.864;2023-07-24T14:06:33;12.57;;;2.67;;
71196;SDS011;58918;51.652;4.864;2023-07-24T14:09:00;12.02;;;2.25;;
71196;SDS011;58918;51.652;4.864;2023-07-24T14:11:29;16.70;;;2.38;;
71196;SDS011;58918;51.652;4.864;2023-07-24T14:13:57;6.55;;;2.00;;
71196;SDS011;58918;51.652;4.864;2023-07-24T14:16:25;7.88;;;2.00;;
71196;SDS011;58918;51.652;4.864;2023-07-24T14:18:52;4.90;;;2.20;;
71196;SDS011;58918;51.652;4.864;2023-07-24T14:21:19;4.80;;;2.42;;
71196;SDS011;58918;51.652;4.864;2023-07-24T14:23:47;4.68;;;2.20;;
71196;SDS011;58918;51.652;4.864;2023-07-24T14:26:14;5.38;;;2.30;;
71196;SDS011;58918;51.652;4.864;2023-07-24T14:28:41;4.82;;;2.20;;
71196;SDS011;58918;51.652;4.864;2023-07-24T14:31:08;7.57;;;2.20;;
71196;SDS011;58918;51.652;4.864;2023-07-24T14:33:35;4.90;;;2.28;;
71196;SDS011;58918;51.652;4.864;2023-07-24T14:36:03;5.35;;;2.05;;
71196;SDS011;58918;51.652;4.864;2023-07-24T14:38:30;4.28;;;2.00;;
71196;SDS011;58918;51.652;4.864;2023-07-24T14:40:57;5.55;;;2.70;;
71196;SDS011;58918;51.652;4.864;2023-07-24T14:43:25;6.10;;;2.30;;
71196;SDS011;58918;51.652;4.864;2023-07-24T14:45:55;5.82;;;2.28;;
71196;SDS011;58918;51.652;4.864;2023-07-24T14:48:23;6.07;;;2.47;;
71196;SDS011;58918;51.652;4.864;2023-07-24T14:50:50;4.90;;;2.22;;
71196;SDS011;58918;51.652;4.864;2023-07-24T14:53:17;6.30;;;2.53;;
71196;SDS011;58918;51.652;4.864;2023-07-24T14:55:44;4.93;;;2.00;;
71196;SDS011;58918;51.652;4.864;2023-07-24T14:58:12;7.38;;;2.25;;
71196;SDS011;58918;51.652;4.864;2023-07-24T15:00:39;5.25;;;2.20;;
71196;SDS011;58918;51.652;4.864;2023-07-24T15:03:07;5.85;;;2.58;;
71196;SDS011;58918;51.652;4.864;2023-07-24T15:05:34;6.15;;;2.25;;
71196;SDS011;58918;51.652;4.864;2023-07-24T15:08:02;6.20;;;2.22;;